sensor_id;sensor_type;location;lat;lon;timestamp;pressure;altitude;pressure_sealevel;temperature;humidity
47873;BME280;73966;47.438;18.912;2024-02-26T00:00:15;99088.47;;;11.35;74.40
47873;BME280;73966;47.438;18.912;2024-02-26T00:02:44;99087.37;;;11.37;74.60
47873;BME280;73966;47.438;18.912;2024-02-26T00:05:12;99078.59;;;11.37;74.21
47873;BME280;73966;47.438;18.912;2024-02-26T00:07:41;99087.06;;;11.10;75.26
47873;BME280;73966;47.438;18.912;2024-02-26T00:10:12;99089.19;;;11.16;75.27
47873;BME280;73966;47.438;18.912;2024-02-26T00:12:42;99100.81;;;11.24;75.15
47873;BME280;73966;47.438;18.912;2024-02-26T00:15:11;99095.03;;;11.40;74.59
47873;BME280;73966;47.438;18.912;2024-02-26T00:17:40;99085.97;;;11.33;74.73
47873;BME280;73966;47.438;18.912;2024-02-26T00:20:10;99078.37;;;11.07;75.65
47873;BME280;73966;47.438;18.912;2024-02-26T00:22:39;99077.06;;;11.44;74.31
47873;BME280;73966;47.438;18.912;2024-02-26T00:25:08;99091.34;;;10.69;77.61
47873;BME280;73966;47.438;18.912;2024-02-26T00:27:38;99089.84;;;10.55;78.20
47873;BME280;73966;47.438;18.912;2024-02-26T00:30:08;99078.31;;;11.19;76.00
47873;BME280;73966;47.438;18.912;2024-02-26T00:32:37;99079.34;;;11.48;74.07
47873;BME280;73966;47.438;18.912;2024-02-26T00:35:06;99081.44;;;11.54;74.12
47873;BME280;73966;47.438;18.912;2024-02-26T00:37:37;99081.81;;;10.98;75.92
47873;BME280;73966;47.438;18.912;2024-02-26T00:40:06;99077.22;;;11.21;75.23
47873;BME280;73966;47.438;18.912;2024-02-26T00:42:36;99080.28;;;11.17;75.44
47873;BME280;73966;47.438;18.912;2024-02-26T00:45:07;99077.34;;;11.20;75.17
47873;BME280;73966;47.438;18.912;2024-02-26T00:47:36;99070.31;;;11.30;75.02
47873;BME280;73966;47.438;18.912;2024-02-26T00:50:06;99062.56;;;11.48;74.39
47873;BME280;73966;47.438;18.912;2024-02-26T00:52:35;99063.28;;;11.80;73.06
47873;BME280;73966;47.438;18.912;2024-02-26T00:55:05;99062.66;;;11.67;73.11
47873;BME280;73966;47.438;18.912;2024-02-26T00:57:34;99058.38;;;11.76;73.41
47873;BME280;73966;47.438;18.912;2024-02-26T01:00:03;99048.37;;;11.58;73.91
47873;BME280;73966;47.438;18.912;2024-02-26T01:02:36;99055.22;;;11.92;72.99
47873;BME280;73966;47.438;18.912;2024-02-26T01:05:09;99057.13;;;11.80;73.11
47873;BME280;73966;47.438;18.912;2024-02-26T01:07:37;99050.69;;;11.82;72.72
47873;BME280;73966;47.438;18.912;2024-02-26T01:10:07;99045.63;;;12.00;72.37
47873;BME280;73966;47.438;18.912;2024-02-26T01:12:36;99046.25;;;11.83;72.87
47873;BME280;73966;47.438;18.912;2024-02-26T01:15:06;99044.31;;;11.95;72.59
47873;BME280;73966;47.438;18.912;2024-02-26T01:17:37;99041.75;;;12.24;71.31
47873;BME280;73966;47.438;18.912;2024-02-26T01:20:07;99033.81;;;12.43;70.30
47873;BME280;73966;47.438;18.912;2024-02-26T01:22:37;99036.16;;;11.77;72.63
47873;BME280;73966;47.438;18.912;2024-02-26T01:25:06;99028.88;;;11.79;72.37
47873;BME280;73966;47.438;18.912;2024-02-26T01:27:37;99029.56;;;11.71;73.09
47873;BME280;73966;47.438;18.912;2024-02-26T01:30:06;99029.09;;;11.56;73.69
47873;BME280;73966;47.438;18.912;2024-02-26T01:32:34;99038.81;;;11.46;74.11
47873;BME280;73966;47.438;18.912;2024-02-26T01:35:06;99034.25;;;11.48;74.27
47873;BME280;73966;47.438;18.912;2024-02-26T01:37:37;99028.81;;;11.60;73.70
47873;BME280;73966;47.438;18.912;2024-02-26T01:40:07;99027.69;;;11.52;74.08
47873;BME280;73966;47.438;18.912;2024-02-26T01:42:38;99030.00;;;11.76;72.98
47873;BME280;73966;47.438;18.912;2024-02-26T01:45:07;99018.91;;;11.92;72.53
47873;BME280;73966;47.438;18.912;2024-02-26T01:47:43;99019.50;;;12.05;72.03
47873;BME280;73966;47.438;18.912;2024-02-26T01:50:15;99010.28;;;12.10;71.69
47873;BME280;73966;47.438;18.912;2024-02-26T01:52:44;99017.16;;;11.81;72.46
47873;BME280;73966;47.438;18.912;2024-02-26T01:55:14;99019.78;;;12.22;71.16
47873;BME280;73966;47.438;18.912;2024-02-26T01:57:43;99017.28;;;12.30;70.66
47873;BME280;73966;47.438;18.912;2024-02-26T02:00:15;99026.37;;;12.27;70.68
47873;BME280;73966;47.438;18.912;2024-02-26T02:02:45;99018.66;;;12.15;71.17
47873;BME280;73966;47.438;18.912;2024-02-26T02:05:17;99018.53;;;12.16;70.86
47873;BME280;73966;47.438;18.912;2024-02-26T02:07:46;99016.28;;;12.31;70.56
47873;BME280;73966;47.438;18.912;2024-02-26T02:10:16;99018.69;;;12.34;70.30
47873;BME280;73966;47.438;18.912;2024-02-26T02:12:50;99029.03;;;12.27;70.53
47873;BME280;73966;47.438;18.912;2024-02-26T02:15:19;99029.72;;;12.29;70.33
47873;BME280;73966;47.438;18.912;2024-02-26T02:17:49;99027.91;;;12.20;70.42
47873;BME280;73966;47.438;18.912;2024-02-26T02:22:56;99027.22;;;12.28;70.30
47873;BME280;73966;47.438;18.912;2024-02-26T02:25:25;99023.13;;;12.14;70.79
47873;BME280;73966;47.438;18.912;2024-02-26T02:27:53;99020.50;;;12.24;70.45
47873;BME280;73966;47.438;18.912;2024-02-26T02:30:23;99031.28;;;12.51;69.35
47873;BME280;73966;47.438;18.912;2024-02-26T02:32:57;99026.50;;;12.26;70.09
47873;BME280;73966;47.438;18.912;2024-02-26T02:35:26;99025.37;;;12.38;69.73
47873;BME280;73966;47.438;18.912;2024-02-26T02:37:57;99037.28;;;12.44;69.51
47873;BME280;73966;47.438;18.912;2024-02-26T02:40:26;99031.41;;;12.21;70.16
47873;BME280;73966;47.438;18.912;2024-02-26T02:42:55;99030.84;;;12.27;69.92
47873;BME280;73966;47.438;18.912;2024-02-26T02:45:24;99025.25;;;12.30;69.79
47873;BME280;73966;47.438;18.912;2024-02-26T02:47:53;99023.69;;;12.18;70.49
47873;BME280;73966;47.438;18.912;2024-02-26T02:50:22;99022.75;;;12.28;69.97
47873;BME280;73966;47.438;18.912;2024-02-26T02:52:53;99016.00;;;12.05;70.76
47873;BME280;73966;47.438;18.912;2024-02-26T02:55:24;99013.34;;;12.05;70.73
47873;BME280;73966;47.438;18.912;2024-02-26T02:57:54;99022.28;;;12.04;70.75
47873;BME280;73966;47.438;18.912;2024-02-26T03:00:22;99022.97;;;11.96;70.98
47873;BME280;73966;47.438;18.912;2024-02-26T03:02:51;99023.69;;;12.08;70.74
47873;BME280;73966;47.438;18.912;2024-02-26T03:05:21;99017.69;;;12.16;70.43
47873;BME280;73966;47.438;18.912;2024-02-26T03:07:49;99031.25;;;12.22;70.22
47873;BME280;73966;47.438;18.912;2024-02-26T03:10:18;99019.38;;;12.17;70.48
47873;BME280;73966;47.438;18.912;2024-02-26T03:12:49;99024.50;;;11.89;71.52
47873;BME280;73966;47.438;18.912;2024-02-26T03:15:18;99018.50;;;11.97;71.23
47873;BME280;73966;47.438;18.912;2024-02-26T03:17:50;99020.84;;;11.90;71.32
47873;BME280;73966;47.438;18.912;2024-02-26T03:20:19;99018.03;;;11.92;71.36
47873;BME280;73966;47.438;18.912;2024-02-26T03:22:48;99018.59;;;11.86;71.59
47873;BME280;73966;47.438;18.912;2024-02-26T03:25:17;99023.66;;;11.89;71.40
47873;BME280;73966;47.438;18.912;2024-02-26T03:27:45;99007.72;;;11.89;71.56
47873;BME280;73966;47.438;18.912;2024-02-26T03:30:16;99006.34;;;11.94;71.17
47873;BME280;73966;47.438;18.912;2024-02-26T03:32:45;99005.53;;;12.13;70.39
47873;BME280;73966;47.438;18.912;2024-02-26T03:35:18;99007.31;;;11.93;70.75
47873;BME280;73966;47.438;18.912;2024-02-26T03:37:47;99002.44;;;12.18;70.12
47873;BME280;73966;47.438;18.912;2024-02-26T03:40:17;99010.69;;;12.05;70.49
47873;BME280;73966;47.438;18.912;2024-02-26T03:42:47;99004.91;;;11.90;71.08
47873;BME280;73966;47.438;18.912;2024-02-26T03:45:17;99001.75;;;11.96;70.98
47873;BME280;73966;47.438;18.912;2024-02-26T03:47:46;98996.53;;;11.95;71.02
47873;BME280;73966;47.438;18.912;2024-02-26T03:50:15;98996.56;;;12.14;70.23
47873;BME280;73966;47.438;18.912;2024-02-26T03:52:44;98994.50;;;12.37;69.48
47873;BME280;73966;47.438;18.912;2024-02-26T03:55:16;98999.75;;;11.98;70.51
47873;BME280;73966;47.438;18.912;2024-02-26T03:57:49;98989.72;;;11.92;70.95
47873;BME280;73966;47.438;18.912;2024-02-26T04:00:19;98994.22;;;11.61;71.90
47873;BME280;73966;47.438;18.912;2024-02-26T04:02:50;98991.62;;;11.80;71.17
47873;BME280;73966;47.438;18.912;2024-02-26T04:05:23;98998.78;;;11.59;71.79
47873;BME280;73966;47.438;18.912;2024-02-26T04:07:52;98996.31;;;11.67;71.54
47873;BME280;73966;47.438;18.912;2024-02-26T04:10:21;98997.72;;;11.71;71.23
47873;BME280;73966;47.438;18.912;2024-02-26T04:12:50;98991.66;;;11.60;71.83
47873;BME280;73966;47.438;18.912;2024-02-26T04:15:20;98981.69;;;11.73;71.17
47873;BME280;73966;47.438;18.912;2024-02-26T04:17:49;98993.38;;;11.30;72.85
47873;BME280;73966;47.438;18.912;2024-02-26T04:20:18;98990.00;;;11.28;72.99
47873;BME280;73966;47.438;18.912;2024-02-26T04:22:47;98982.59;;;11.52;72.24
47873;BME280;73966;47.438;18.912;2024-02-26T04:25:20;98981.03;;;11.50;72.00
47873;BME280;73966;47.438;18.912;2024-02-26T04:27:51;98990.56;;;11.52;71.54
47873;BME280;73966;47.438;18.912;2024-02-26T04:30:21;98993.38;;;10.99;73.89
47873;BME280;73966;47.438;18.912;2024-02-26T04:32:53;98990.97;;;10.96;74.12
47873;BME280;73966;47.438;18.912;2024-02-26T04:35:22;98990.66;;;11.11;73.73
47873;BME280;73966;47.438;18.912;2024-02-26T04:37:51;98996.63;;;10.82;74.73
47873;BME280;73966;47.438;18.912;2024-02-26T04:40:21;98995.75;;;10.61;75.59
47873;BME280;73966;47.438;18.912;2024-02-26T04:42:50;98992.66;;;10.76;74.73
47873;BME280;73966;47.438;18.912;2024-02-26T04:45:18;98990.91;;;11.07;73.77
47873;BME280;73966;47.438;18.912;2024-02-26T04:47:48;98979.47;;;11.07;73.58
47873;BME280;73966;47.438;18.912;2024-02-26T04:50:17;98984.47;;;11.31;72.45
47873;BME280;73966;47.438;18.912;2024-02-26T04:52:46;98982.78;;;11.30;72.79
47873;BME280;73966;47.438;18.912;2024-02-26T04:55:15;98972.97;;;11.21;72.59
47873;BME280;73966;47.438;18.912;2024-02-26T04:57:43;98983.66;;;11.10;73.42
47873;BME280;73966;47.438;18.912;2024-02-26T05:00:13;98979.37;;;11.18;73.10
47873;BME280;73966;47.438;18.912;2024-02-26T05:02:42;98985.31;;;10.80;74.60
47873;BME280;73966;47.438;18.912;2024-02-26T05:05:12;98972.81;;;11.13;73.54
47873;BME280;73966;47.438;18.912;2024-02-26T05:07:41;98983.44;;;10.71;75.21
47873;BME280;73966;47.438;18.912;2024-02-26T05:10:11;98977.38;;;11.11;73.81
47873;BME280;73966;47.438;18.912;2024-02-26T05:12:40;98984.00;;;10.95;74.21
47873;BME280;73966;47.438;18.912;2024-02-26T05:15:10;98981.13;;;11.29;72.79
47873;BME280;73966;47.438;18.912;2024-02-26T05:17:48;98989.44;;;10.94;74.37
47873;BME280;73966;47.438;18.912;2024-02-26T05:20:23;98980.63;;;11.14;73.55
47873;BME280;73966;47.438;18.912;2024-02-26T05:22:52;98988.78;;;10.80;75.13
47873;BME280;73966;47.438;18.912;2024-02-26T05:25:21;98983.31;;;11.24;73.19
47873;BME280;73966;47.438;18.912;2024-02-26T05:27:50;98988.41;;;11.37;72.52
47873;BME280;73966;47.438;18.912;2024-02-26T05:30:19;98989.31;;;10.53;75.81
47873;BME280;73966;47.438;18.912;2024-02-26T05:32:48;98994.81;;;10.62;75.98
47873;BME280;73966;47.438;18.912;2024-02-26T05:35:18;98987.03;;;10.91;75.07
47873;BME280;73966;47.438;18.912;2024-02-26T05:37:49;98986.59;;;10.86;74.92
47873;BME280;73966;47.438;18.912;2024-02-26T05:40:17;98983.12;;;10.85;75.33
47873;BME280;73966;47.438;18.912;2024-02-26T05:42:46;98983.22;;;10.83;75.32
47873;BME280;73966;47.438;18.912;2024-02-26T05:45:17;98971.94;;;11.12;74.50
47873;BME280;73966;47.438;18.912;2024-02-26T05:47:46;98978.72;;;11.26;73.76
47873;BME280;73966;47.438;18.912;2024-02-26T05:50:15;98977.66;;;11.38;73.17
47873;BME280;73966;47.438;18.912;2024-02-26T05:52:45;98977.38;;;11.11;74.20
47873;BME280;73966;47.438;18.912;2024-02-26T05:55:15;98980.84;;;10.80;75.48
47873;BME280;73966;47.438;18.912;2024-02-26T05:57:45;98980.91;;;10.90;75.08
47873;BME280;73966;47.438;18.912;2024-02-26T06:00:14;98985.50;;;10.88;75.44
47873;BME280;73966;47.438;18.912;2024-02-26T06:02:43;98991.78;;;10.66;76.39
47873;BME280;73966;47.438;18.912;2024-02-26T06:05:12;98989.94;;;10.88;75.37
47873;BME280;73966;47.438;18.912;2024-02-26T06:07:41;98997.03;;;10.77;75.62
47873;BME280;73966;47.438;18.912;2024-02-26T06:10:10;98997.50;;;10.92;75.42
47873;BME280;73966;47.438;18.912;2024-02-26T06:12:42;99003.53;;;10.73;76.22
47873;BME280;73966;47.438;18.912;2024-02-26T06:15:11;99008.31;;;10.79;76.11
47873;BME280;73966;47.438;18.912;2024-02-26T06:17:40;99013.72;;;10.57;77.03
47873;BME280;73966;47.438;18.912;2024-02-26T06:20:09;99006.97;;;10.85;76.24
47873;BME280;73966;47.438;18.912;2024-02-26T06:22:40;99006.56;;;10.69;77.07
47873;BME280;73966;47.438;18.912;2024-02-26T06:25:09;99014.25;;;10.93;76.08
47873;BME280;73966;47.438;18.912;2024-02-26T06:27:39;99010.31;;;10.87;76.33
47873;BME280;73966;47.438;18.912;2024-02-26T06:30:11;99014.09;;;11.15;75.58
47873;BME280;73966;47.438;18.912;2024-02-26T06:32:42;99008.22;;;11.12;75.59
47873;BME280;73966;47.438;18.912;2024-02-26T06:35:12;99016.91;;;11.44;74.71
47873;BME280;73966;47.438;18.912;2024-02-26T06:37:44;99012.28;;;11.16;75.59
47873;BME280;73966;47.438;18.912;2024-02-26T06:40:13;99003.81;;;11.52;74.26
47873;BME280;73966;47.438;18.912;2024-02-26T06:42:42;99006.09;;;11.36;75.20
47873;BME280;73966;47.438;18.912;2024-02-26T06:45:17;99009.25;;;11.51;74.55
47873;BME280;73966;47.438;18.912;2024-02-26T06:47:47;99001.84;;;11.45;74.63
47873;BME280;73966;47.438;18.912;2024-02-26T06:50:16;99011.94;;;11.61;74.24
47873;BME280;73966;47.438;18.912;2024-02-26T06:52:45;99016.53;;;11.58;74.03
47873;BME280;73966;47.438;18.912;2024-02-26T06:55:14;99020.56;;;11.22;75.47
47873;BME280;73966;47.438;18.912;2024-02-26T06:57:43;99019.94;;;11.40;75.50
47873;BME280;73966;47.438;18.912;2024-02-26T07:00:12;99019.16;;;11.49;74.28
47873;BME280;73966;47.438;18.912;2024-02-26T07:02:44;99026.53;;;11.45;74.79
47873;BME280;73966;47.438;18.912;2024-02-26T07:05:14;99021.16;;;10.84;76.97
47873;BME280;73966;47.438;18.912;2024-02-26T07:07:46;99013.78;;;11.29;75.99
47873;BME280;73966;47.438;18.912;2024-02-26T07:10:16;99019.09;;;11.79;74.32
47873;BME280;73966;47.438;18.912;2024-02-26T07:12:53;99026.31;;;11.89;73.76
47873;BME280;73966;47.438;18.912;2024-02-26T07:15:23;99014.44;;;12.02;73.62
47873;BME280;73966;47.438;18.912;2024-02-26T07:17:53;99017.56;;;12.17;72.98
47873;BME280;73966;47.438;18.912;2024-02-26T07:20:22;99013.34;;;12.05;73.28
47873;BME280;73966;47.438;18.912;2024-02-26T07:22:52;99018.25;;;12.10;73.25
47873;BME280;73966;47.438;18.912;2024-02-26T07:25:21;99022.59;;;12.20;72.93
47873;BME280;73966;47.438;18.912;2024-02-26T07:27:49;99024.13;;;12.33;72.55
47873;BME280;73966;47.438;18.912;2024-02-26T07:30:25;99029.44;;;12.62;70.96
47873;BME280;73966;47.438;18.912;2024-02-26T07:32:58;99033.91;;;12.22;72.57
47873;BME280;73966;47.438;18.912;2024-02-26T07:35:27;99029.19;;;12.45;72.35
47873;BME280;73966;47.438;18.912;2024-02-26T07:37:56;99037.16;;;12.65;71.28
47873;BME280;73966;47.438;18.912;2024-02-26T07:40:25;99036.56;;;12.90;71.35
47873;BME280;73966;47.438;18.912;2024-02-26T07:42:54;99039.25;;;12.80;71.78
47873;BME280;73966;47.438;18.912;2024-02-26T07:45:23;99035.13;;;13.05;71.01
47873;BME280;73966;47.438;18.912;2024-02-26T07:47:52;99034.56;;;13.12;70.09
47873;BME280;73966;47.438;18.912;2024-02-26T07:50:25;99032.59;;;13.14;70.07
47873;BME280;73966;47.438;18.912;2024-02-26T07:52:58;99031.50;;;13.07;70.37
47873;BME280;73966;47.438;18.912;2024-02-26T07:55:27;99024.03;;;13.39;69.75
47873;BME280;73966;47.438;18.912;2024-02-26T07:57:56;99027.38;;;13.41;69.20
47873;BME280;73966;47.438;18.912;2024-02-26T08:00:25;99031.22;;;13.57;68.63
47873;BME280;73966;47.438;18.912;2024-02-26T08:02:58;99034.19;;;13.53;69.93
47873;BME280;73966;47.438;18.912;2024-02-26T08:05:31;99036.66;;;13.65;69.61
47873;BME280;73966;47.438;18.912;2024-02-26T08:08:10;99047.13;;;13.76;69.57
47873;BME280;73966;47.438;18.912;2024-02-26T08:10:45;99043.81;;;13.64;67.44
47873;BME280;73966;47.438;18.912;2024-02-26T08:13:14;99043.41;;;13.59;67.88
47873;BME280;73966;47.438;18.912;2024-02-26T08:15:43;99044.19;;;13.79;67.61
47873;BME280;73966;47.438;18.912;2024-02-26T08:18:13;99045.38;;;13.57;68.71
47873;BME280;73966;47.438;18.912;2024-02-26T08:20:43;99049.50;;;13.79;67.02
47873;BME280;73966;47.438;18.912;2024-02-26T08:23:12;99053.28;;;13.39;68.58
47873;BME280;73966;47.438;18.912;2024-02-26T08:25:41;99047.94;;;13.49;67.70
47873;BME280;73966;47.438;18.912;2024-02-26T08:28:10;99034.88;;;13.56;67.70
47873;BME280;73966;47.438;18.912;2024-02-26T08:30:41;99034.38;;;13.70;68.13
47873;BME280;73966;47.438;18.912;2024-02-26T08:33:10;99033.53;;;13.79;67.87
47873;BME280;73966;47.438;18.912;2024-02-26T08:35:40;99038.28;;;13.38;69.08
47873;BME280;73966;47.438;18.912;2024-02-26T08:38:11;99039.78;;;13.88;66.42
47873;BME280;73966;47.438;18.912;2024-02-26T08:40:40;99037.81;;;13.62;67.84
47873;BME280;73966;47.438;18.912;2024-02-26T08:43:08;99031.34;;;13.65;67.42
47873;BME280;73966;47.438;18.912;2024-02-26T08:45:37;99040.87;;;14.13;65.24
47873;BME280;73966;47.438;18.912;2024-02-26T08:48:07;99042.91;;;13.83;68.22
47873;BME280;73966;47.438;18.912;2024-02-26T08:50:46;99042.28;;;13.89;69.29
47873;BME280;73966;47.438;18.912;2024-02-26T08:53:20;99040.53;;;13.80;66.73
47873;BME280;73966;47.438;18.912;2024-02-26T08:56:04;99045.47;;;13.75;69.02
47873;BME280;73966;47.438;18.912;2024-02-26T08:58:34;99044.50;;;14.21;66.66
47873;BME280;73966;47.438;18.912;2024-02-26T09:01:03;99043.97;;;14.18;65.84
47873;BME280;73966;47.438;18.912;2024-02-26T09:03:33;99051.66;;;13.93;66.30
47873;BME280;73966;47.438;18.912;2024-02-26T09:06:03;99045.72;;;14.27;65.81
47873;BME280;73966;47.438;18.912;2024-02-26T09:08:34;99052.25;;;14.15;66.29
47873;BME280;73966;47.438;18.912;2024-02-26T09:11:04;99045.03;;;14.43;65.38
47873;BME280;73966;47.438;18.912;2024-02-26T09:13:45;99055.19;;;13.94;65.91
47873;BME280;73966;47.438;18.912;2024-02-26T09:16:13;99049.13;;;13.74;66.88
47873;BME280;73966;47.438;18.912;2024-02-26T09:18:51;99053.25;;;13.49;67.98
47873;BME280;73966;47.438;18.912;2024-02-26T09:21:20;99052.53;;;13.84;67.07
47873;BME280;73966;47.438;18.912;2024-02-26T09:23:52;99053.00;;;13.42;68.11
47873;BME280;73966;47.438;18.912;2024-02-26T09:26:21;99057.97;;;13.65;68.27
47873;BME280;73966;47.438;18.912;2024-02-26T09:28:50;99056.56;;;13.98;67.16
47873;BME280;73966;47.438;18.912;2024-02-26T09:31:22;99054.38;;;13.84;67.57
47873;BME280;73966;47.438;18.912;2024-02-26T09:33:51;99057.84;;;13.57;68.31
47873;BME280;73966;47.438;18.912;2024-02-26T09:36:20;99054.47;;;13.64;67.91
47873;BME280;73966;47.438;18.912;2024-02-26T09:38:49;99063.37;;;13.36;69.34
47873;BME280;73966;47.438;18.912;2024-02-26T09:41:28;99061.50;;;13.56;68.61
47873;BME280;73966;47.438;18.912;2024-02-26T09:43:58;99062.41;;;13.37;68.86
47873;BME280;73966;47.438;18.912;2024-02-26T09:46:28;99063.41;;;13.26;68.96
47873;BME280;73966;47.438;18.912;2024-02-26T09:48:57;99069.63;;;13.54;68.97
47873;BME280;73966;47.438;18.912;2024-02-26T09:51:26;99072.75;;;13.77;67.40
47873;BME280;73966;47.438;18.912;2024-02-26T09:53:59;99074.31;;;13.70;68.10
47873;BME280;73966;47.438;18.912;2024-02-26T09:56:31;99077.66;;;13.44;68.56
47873;BME280;73966;47.438;18.912;2024-02-26T09:59:00;99072.94;;;13.66;68.25
47873;BME280;73966;47.438;18.912;2024-02-26T10:01:31;99073.47;;;13.79;68.31
47873;BME280;73966;47.438;18.912;2024-02-26T10:04:02;99076.50;;;13.84;68.37
47873;BME280;73966;47.438;18.912;2024-02-26T10:06:32;99081.69;;;13.86;68.38
47873;BME280;73966;47.438;18.912;2024-02-26T10:09:01;99076.81;;;14.09;67.87
47873;BME280;73966;47.438;18.912;2024-02-26T10:11:35;99072.66;;;14.24;65.68
47873;BME280;73966;47.438;18.912;2024-02-26T10:14:04;99074.72;;;14.30;66.24
47873;BME280;73966;47.438;18.912;2024-02-26T10:16:43;99067.94;;;14.18;66.10
47873;BME280;73966;47.438;18.912;2024-02-26T10:19:18;99067.62;;;14.66;63.84
47873;BME280;73966;47.438;18.912;2024-02-26T10:22:00;99062.41;;;14.47;64.84
47873;BME280;73966;47.438;18.912;2024-02-26T10:24:30;99060.00;;;14.54;64.90
47873;BME280;73966;47.438;18.912;2024-02-26T10:27:01;99053.19;;;14.95;62.26
47873;BME280;73966;47.438;18.912;2024-02-26T10:29:35;99053.94;;;14.61;63.82
47873;BME280;73966;47.438;18.912;2024-02-26T10:32:04;99054.03;;;14.95;65.74
47873;BME280;73966;47.438;18.912;2024-02-26T10:34:33;99054.63;;;15.59;63.33
47873;BME280;73966;47.438;18.912;2024-02-26T10:37:05;99053.22;;;15.21;61.67
47873;BME280;73966;47.438;18.912;2024-02-26T10:39:36;99040.44;;;15.85;60.86
47873;BME280;73966;47.438;18.912;2024-02-26T10:42:06;99041.13;;;15.95;60.63
47873;BME280;73966;47.438;18.912;2024-02-26T10:44:41;99038.44;;;15.61;60.87
47873;BME280;73966;47.438;18.912;2024-02-26T10:47:14;99033.66;;;16.15;58.33
47873;BME280;73966;47.438;18.912;2024-02-26T10:49:47;99034.81;;;16.04;58.27
47873;BME280;73966;47.438;18.912;2024-02-26T10:52:16;99029.56;;;16.53;57.98
47873;BME280;73966;47.438;18.912;2024-02-26T10:54:53;99030.78;;;16.75;57.06
47873;BME280;73966;47.438;18.912;2024-02-26T10:57:24;99027.13;;;16.76;57.22
47873;BME280;73966;47.438;18.912;2024-02-26T10:59:55;99027.50;;;16.22;56.19
47873;BME280;73966;47.438;18.912;2024-02-26T11:02:25;99030.41;;;16.70;55.96
47873;BME280;73966;47.438;18.912;2024-02-26T11:04:56;99027.06;;;16.35;57.80
47873;BME280;73966;47.438;18.912;2024-02-26T11:07:26;99038.41;;;16.54;57.11
47873;BME280;73966;47.438;18.912;2024-02-26T11:09:55;99024.69;;;16.32;57.39
47873;BME280;73966;47.438;18.912;2024-02-26T11:12:26;99031.50;;;16.18;56.75
47873;BME280;73966;47.438;18.912;2024-02-26T11:14:57;99024.53;;;16.50;56.16
47873;BME280;73966;47.438;18.912;2024-02-26T11:17:27;99032.22;;;16.29;57.66
47873;BME280;73966;47.438;18.912;2024-02-26T11:19:59;99028.75;;;16.69;57.03
47873;BME280;73966;47.438;18.912;2024-02-26T11:22:30;99034.06;;;16.44;56.70
47873;BME280;73966;47.438;18.912;2024-02-26T11:25:01;99032.50;;;15.67;58.76
47873;BME280;73966;47.438;18.912;2024-02-26T11:27:36;99048.63;;;15.31;59.00
47873;BME280;73966;47.438;18.912;2024-02-26T11:30:08;99040.03;;;15.45;60.13
47873;BME280;73966;47.438;18.912;2024-02-26T11:32:40;99038.97;;;15.64;59.44
47873;BME280;73966;47.438;18.912;2024-02-26T11:35:09;99036.56;;;15.53;59.43
47873;BME280;73966;47.438;18.912;2024-02-26T11:37:41;99040.25;;;15.26;59.67
47873;BME280;73966;47.438;18.912;2024-02-26T11:40:12;99031.75;;;15.57;59.62
47873;BME280;73966;47.438;18.912;2024-02-26T11:42:44;99039.19;;;15.71;59.14
47873;BME280;73966;47.438;18.912;2024-02-26T11:48:01;99047.38;;;14.73;61.01
47873;BME280;73966;47.438;18.912;2024-02-26T11:50:34;99034.69;;;15.19;59.78
47873;BME280;73966;47.438;18.912;2024-02-26T11:56:21;99034.03;;;15.17;60.22
47873;BME280;73966;47.438;18.912;2024-02-26T11:58:57;99030.00;;;15.13;59.31
47873;BME280;73966;47.438;18.912;2024-02-26T12:01:40;99032.72;;;15.21;58.55
47873;BME280;73966;47.438;18.912;2024-02-26T12:04:11;99037.84;;;15.41;58.80
47873;BME280;73966;47.438;18.912;2024-02-26T12:06:46;99026.16;;;15.42;58.92
47873;BME280;73966;47.438;18.912;2024-02-26T12:09:31;99022.25;;;15.88;57.54
47873;BME280;73966;47.438;18.912;2024-02-26T12:12:06;99024.75;;;15.90;58.23
47873;BME280;73966;47.438;18.912;2024-02-26T12:14:39;99027.59;;;15.02;59.81
47873;BME280;73966;47.438;18.912;2024-02-26T12:17:15;99031.72;;;15.22;60.14
47873;BME280;73966;47.438;18.912;2024-02-26T12:19:47;99033.50;;;15.14;59.28
47873;BME280;73966;47.438;18.912;2024-02-26T12:22:16;99031.53;;;15.24;58.87
47873;BME280;73966;47.438;18.912;2024-02-26T12:24:57;99025.91;;;15.27;59.32
47873;BME280;73966;47.438;18.912;2024-02-26T12:27:27;99022.72;;;14.97;60.29
47873;BME280;73966;47.438;18.912;2024-02-26T12:29:57;99017.31;;;15.15;60.21
47873;BME280;73966;47.438;18.912;2024-02-26T12:32:25;99020.56;;;15.53;58.84
47873;BME280;73966;47.438;18.912;2024-02-26T12:34:55;99004.69;;;15.52;59.10
47873;BME280;73966;47.438;18.912;2024-02-26T12:37:27;99016.19;;;15.18;59.88
47873;BME280;73966;47.438;18.912;2024-02-26T12:39:56;99017.13;;;15.09;60.36
47873;BME280;73966;47.438;18.912;2024-02-26T12:42:29;99013.41;;;15.96;58.56
47873;BME280;73966;47.438;18.912;2024-02-26T12:45:01;99007.28;;;16.04;57.94
47873;BME280;73966;47.438;18.912;2024-02-26T12:47:30;99009.81;;;16.21;57.04
47873;BME280;73966;47.438;18.912;2024-02-26T12:49:58;99000.84;;;16.96;55.80
47873;BME280;73966;47.438;18.912;2024-02-26T12:52:33;99018.03;;;16.53;56.55
47873;BME280;73966;47.438;18.912;2024-02-26T12:55:02;99011.38;;;16.81;55.50
47873;BME280;73966;47.438;18.912;2024-02-26T12:57:32;99014.53;;;16.52;55.80
47873;BME280;73966;47.438;18.912;2024-02-26T13:00:03;99018.87;;;16.61;56.77
47873;BME280;73966;47.438;18.912;2024-02-26T13:02:33;99021.03;;;16.50;56.43
47873;BME280;73966;47.438;18.912;2024-02-26T13:05:03;99015.25;;;16.95;53.56
47873;BME280;73966;47.438;18.912;2024-02-26T13:07:32;99022.88;;;16.49;54.82
47873;BME280;73966;47.438;18.912;2024-02-26T13:10:03;99017.50;;;16.33;54.93
47873;BME280;73966;47.438;18.912;2024-02-26T13:12:35;99018.16;;;16.27;54.60
47873;BME280;73966;47.438;18.912;2024-02-26T13:15:07;99018.37;;;16.66;55.24